CES8667 ZSQD-ZSZS
Flight info
| Callsign | CES8667 |
|---|---|
| Flight time | 0h 51m |
| Altitude | 37100 |
| Route | LAT81D LATUX W108 MATNU/K0870S1160 W115 PINOT W13 HSN |
| Aircraft | B738/M-SDE2E3FGHIRWXY/LB1 |
Departure
| Time | 2026-04-14 09:58 |
|---|---|
| Airport | Qingdao Jiaodong International Airport (ZSQD) |
Arrival
| Time | 2026-04-14 10:49 |
|---|---|
| Airport | Zhoushan Putuoshan International Airport (ZSZS) |
| Time | Latitude | Longitude | Altitude | Speed | Heading |
|---|---|---|---|---|---|
| 2026-04-14 09:42 | 36.36201 | 120.08210 | 36 ft | 0 kts | 12° |
| 2026-04-14 09:50 | 36.36188 | 120.08207 | 35 ft | 4 kts | 11° |
| 2026-04-14 09:50 | 36.36161 | 120.08202 | 35 ft | 4 kts | 4° |
| 2026-04-14 09:50 | 36.36134 | 120.08201 | 34 ft | 4 kts | 351° |
| 2026-04-14 09:50 | 36.36111 | 120.08211 | 33 ft | 4 kts | 311° |
| 2026-04-14 09:51 | 36.36106 | 120.08222 | 36 ft | 2 kts | 282° |
| 2026-04-14 09:53 | 36.36107 | 120.08215 | 34 ft | 3 kts | 282° |
| 2026-04-14 09:53 | 36.36117 | 120.08160 | 36 ft | 10 kts | 282° |
| 2026-04-14 09:53 | 36.36116 | 120.08055 | 36 ft | 15 kts | 256° |
| 2026-04-14 09:54 | 36.36081 | 120.07910 | 36 ft | 20 kts | 253° |
| 2026-04-14 09:54 | 36.36049 | 120.07782 | 37 ft | 4 kts | 258° |
| 2026-04-14 09:54 | 36.36062 | 120.07755 | 37 ft | 4 kts | 322° |
| 2026-04-14 09:54 | 36.36099 | 120.07742 | 35 ft | 9 kts | 346° |
| 2026-04-14 09:55 | 36.36174 | 120.07735 | 37 ft | 13 kts | 5° |
| 2026-04-14 09:55 | 36.36279 | 120.07710 | 37 ft | 18 kts | 343° |
| 2026-04-14 09:55 | 36.36415 | 120.07658 | 35 ft | 23 kts | 343° |
| 2026-04-14 09:55 | 36.36585 | 120.07592 | 35 ft | 28 kts | 341° |
| 2026-04-14 09:56 | 36.36783 | 120.07512 | 37 ft | 32 kts | 342° |
| 2026-04-14 09:56 | 36.36997 | 120.07426 | 37 ft | 18 kts | 342° |
| 2026-04-14 09:56 | 36.37135 | 120.07373 | 36 ft | 19 kts | 334° |
| 2026-04-14 09:56 | 36.37157 | 120.07290 | 37 ft | 11 kts | 254° |
| 2026-04-14 09:57 | 36.37136 | 120.07251 | 36 ft | 4 kts | 227° |
| 2026-04-14 09:57 | 36.37099 | 120.07204 | 35 ft | 10 kts | 218° |
| 2026-04-14 09:57 | 36.37019 | 120.07200 | 36 ft | 14 kts | 161° |
| 2026-04-14 09:57 | 36.36918 | 120.07239 | 36 ft | 17 kts | 163° |
| 2026-04-14 09:58 | 36.36528 | 120.07392 | 39 ft | 108 kts | 162° |
| 2026-04-14 09:58 | 36.35542 | 120.07784 | 244 ft | 174 kts | 162° |
| 2026-04-14 09:58 | 36.34431 | 120.08229 | 1677 ft | 163 kts | 163° |
| 2026-04-14 09:58 | 36.33326 | 120.08668 | 2782 ft | 176 kts | 161° |
| 2026-04-14 09:59 | 36.32038 | 120.09188 | 3332 ft | 213 kts | 160° |
| 2026-04-14 09:59 | 36.30568 | 120.09922 | 3620 ft | 245 kts | 146° |
| 2026-04-14 09:59 | 36.29209 | 120.11331 | 4244 ft | 261 kts | 131° |
| 2026-04-14 09:59 | 36.28131 | 120.13143 | 5197 ft | 263 kts | 117° |
| 2026-04-14 10:00 | 36.27266 | 120.15152 | 6160 ft | 268 kts | 125° |
| 2026-04-14 10:00 | 36.26245 | 120.17086 | 7026 ft | 273 kts | 109° |
| 2026-04-14 10:00 | 36.26142 | 120.19410 | 7885 ft | 277 kts | 75° |
| 2026-04-14 10:00 | 36.27045 | 120.21511 | 8749 ft | 282 kts | 54° |
| 2026-04-14 10:01 | 36.28084 | 120.23606 | 9581 ft | 289 kts | 63° |
| 2026-04-14 10:01 | 36.28874 | 120.25828 | 10358 ft | 295 kts | 69° |
| 2026-04-14 10:01 | 36.29573 | 120.28244 | 11095 ft | 303 kts | 71° |
| 2026-04-14 10:01 | 36.30138 | 120.30768 | 11871 ft | 308 kts | 84° |
| 2026-04-14 10:02 | 36.29910 | 120.33401 | 12677 ft | 312 kts | 110° |
| 2026-04-14 10:02 | 36.28285 | 120.36261 | 13324 ft | 330 kts | 145° |
| 2026-04-14 10:02 | 36.19523 | 120.39996 | 14928 ft | 379 kts | 166° |
| 2026-04-14 10:02 | 36.09209 | 120.43922 | 17569 ft | 396 kts | 166° |
| 2026-04-14 10:03 | 35.98513 | 120.48077 | 19817 ft | 412 kts | 167° |
| 2026-04-14 10:03 | 35.87607 | 120.53377 | 21826 ft | 434 kts | 159° |
| 2026-04-14 10:03 | 35.76216 | 120.59919 | 22526 ft | 471 kts | 160° |
| 2026-04-14 10:03 | 35.64205 | 120.67314 | 23412 ft | 491 kts | 154° |
| 2026-04-14 10:04 | 35.52328 | 120.75638 | 24486 ft | 494 kts | 156° |
| 2026-04-14 10:04 | 35.39953 | 120.82892 | 25450 ft | 492 kts | 164° |
| 2026-04-14 10:04 | 35.27283 | 120.88719 | 27001 ft | 483 kts | 164° |
| 2026-04-14 10:04 | 35.16353 | 120.94182 | 28206 ft | 479 kts | 164° |
| 2026-04-14 10:05 | 35.03998 | 121.00317 | 29760 ft | 476 kts | 164° |
| 2026-04-14 10:05 | 34.91811 | 121.06354 | 31120 ft | 473 kts | 165° |
| 2026-04-14 10:05 | 34.74889 | 121.14696 | 32371 ft | 478 kts | 165° |
| 2026-04-14 10:05 | 34.49750 | 121.27057 | 34037 ft | 480 kts | 165° |
| 2026-04-14 10:06 | 34.25086 | 121.39261 | 35438 ft | 481 kts | 167° |
| 2026-04-14 10:06 | 34.00459 | 121.51168 | 36845 ft | 475 kts | 170° |
| 2026-04-14 10:06 | 33.77338 | 121.62165 | 37955 ft | 474 kts | 172° |
| 2026-04-14 10:06 | 33.74616 | 121.63462 | 38166 ft | 472 kts | 172° |
| 2026-04-14 10:07 | 33.73391 | 121.64045 | 38241 ft | 472 kts | 172° |
| 2026-04-14 10:07 | 33.71420 | 121.64985 | 38355 ft | 471 kts | 172° |
| 2026-04-14 10:07 | 33.68445 | 121.66415 | 38495 ft | 472 kts | 172° |
| 2026-04-14 10:07 | 33.65404 | 121.67892 | 38618 ft | 473 kts | 172° |
| 2026-04-14 10:08 | 33.62365 | 121.69373 | 38742 ft | 472 kts | 172° |
| 2026-04-14 10:08 | 33.59326 | 121.70852 | 38845 ft | 472 kts | 172° |
| 2026-04-14 10:08 | 33.56290 | 121.72325 | 38929 ft | 471 kts | 172° |
| 2026-04-14 10:09 | 33.50207 | 121.75277 | 38958 ft | 474 kts | 172° |
| 2026-04-14 10:09 | 33.44109 | 121.78254 | 38964 ft | 475 kts | 172° |
| 2026-04-14 10:10 | 33.38000 | 121.81237 | 38962 ft | 475 kts | 172° |
| 2026-04-14 10:10 | 33.31883 | 121.84218 | 38966 ft | 476 kts | 172° |
| 2026-04-14 10:11 | 33.25763 | 121.87194 | 38971 ft | 476 kts | 172° |
| 2026-04-14 10:11 | 33.19643 | 121.90164 | 38957 ft | 476 kts | 172° |
| 2026-04-14 10:12 | 33.13521 | 121.93130 | 38957 ft | 475 kts | 172° |
| 2026-04-14 10:12 | 33.07405 | 121.96089 | 38953 ft | 475 kts | 172° |
| 2026-04-14 10:13 | 33.01292 | 121.99042 | 38960 ft | 475 kts | 172° |
| 2026-04-14 10:13 | 32.95175 | 122.01992 | 38959 ft | 475 kts | 172° |
| 2026-04-14 10:14 | 32.89060 | 122.04937 | 38956 ft | 475 kts | 172° |
| 2026-04-14 10:14 | 32.83596 | 122.07565 | 38958 ft | 475 kts | 172° |
| 2026-04-14 10:15 | 32.77307 | 122.10585 | 38966 ft | 476 kts | 172° |
| 2026-04-14 10:15 | 32.71492 | 122.13373 | 38961 ft | 477 kts | 172° |
| 2026-04-14 10:16 | 32.66197 | 122.15908 | 38956 ft | 477 kts | 172° |
| 2026-04-14 10:16 | 32.60043 | 122.18851 | 38955 ft | 478 kts | 172° |
| 2026-04-14 10:17 | 32.33071 | 122.31686 | 38966 ft | 480 kts | 171° |
| 2026-04-14 10:17 | 31.83490 | 122.55108 | 38933 ft | 480 kts | 171° |
| 2026-04-14 10:18 | 31.69181 | 122.61343 | 38940 ft | 441 kts | 188° |
| 2026-04-14 10:18 | 31.66206 | 122.61238 | 38954 ft | 410 kts | 202° |
| 2026-04-14 10:18 | 31.63516 | 122.60429 | 38965 ft | 391 kts | 211° |
| 2026-04-14 10:19 | 31.61129 | 122.59100 | 38950 ft | 373 kts | 221° |
| 2026-04-14 10:19 | 31.59133 | 122.57461 | 38959 ft | 364 kts | 225° |
| 2026-04-14 10:19 | 31.55165 | 122.53893 | 38945 ft | 358 kts | 226° |
| 2026-04-14 10:20 | 31.51286 | 122.50466 | 38716 ft | 360 kts | 225° |
| 2026-04-14 10:20 | 31.49265 | 122.48700 | 38233 ft | 369 kts | 225° |
| 2026-04-14 10:20 | 31.47054 | 122.47097 | 37674 ft | 390 kts | 216° |
| 2026-04-14 10:21 | 31.44490 | 122.45844 | 36995 ft | 409 kts | 210° |
| 2026-04-14 10:21 | 31.41750 | 122.44908 | 36086 ft | 421 kts | 202° |
| 2026-04-14 10:21 | 31.38795 | 122.44509 | 35340 ft | 428 kts | 195° |
| 2026-04-14 10:21 | 31.35837 | 122.44384 | 34614 ft | 425 kts | 194° |
| 2026-04-14 10:22 | 31.32907 | 122.44274 | 33868 ft | 420 kts | 195° |
| 2026-04-14 10:22 | 31.30018 | 122.44132 | 33055 ft | 413 kts | 195° |
| 2026-04-14 10:22 | 31.27163 | 122.43969 | 32051 ft | 413 kts | 194° |
| 2026-04-14 10:22 | 31.24285 | 122.43795 | 31248 ft | 420 kts | 194° |
| 2026-04-14 10:23 | 31.21323 | 122.43609 | 30577 ft | 434 kts | 193° |
| 2026-04-14 10:23 | 31.18275 | 122.43424 | 30017 ft | 444 kts | 192° |
| 2026-04-14 10:23 | 31.15190 | 122.43250 | 29506 ft | 443 kts | 192° |
| 2026-04-14 10:23 | 31.12179 | 122.43095 | 28938 ft | 425 kts | 192° |
| 2026-04-14 10:24 | 31.09281 | 122.42943 | 28365 ft | 411 kts | 192° |
| 2026-04-14 10:24 | 31.06475 | 122.42786 | 27805 ft | 399 kts | 192° |
| 2026-04-14 10:24 | 31.03755 | 122.42629 | 27246 ft | 388 kts | 192° |
| 2026-04-14 10:24 | 31.01080 | 122.42473 | 26720 ft | 385 kts | 192° |
| 2026-04-14 10:25 | 30.99056 | 122.42349 | 26248 ft | 394 kts | 192° |
| 2026-04-14 10:25 | 30.96232 | 122.42170 | 25454 ft | 417 kts | 191° |
| 2026-04-14 10:25 | 30.93319 | 122.42000 | 24774 ft | 416 kts | 191° |
| 2026-04-14 10:25 | 30.90513 | 122.41857 | 24191 ft | 405 kts | 190° |
| 2026-04-14 10:26 | 30.87729 | 122.41717 | 23622 ft | 393 kts | 190° |
| 2026-04-14 10:26 | 30.85008 | 122.41576 | 22992 ft | 384 kts | 190° |
| 2026-04-14 10:26 | 30.82378 | 122.41434 | 22427 ft | 374 kts | 190° |
| 2026-04-14 10:26 | 30.79806 | 122.41292 | 21902 ft | 369 kts | 190° |
| 2026-04-14 10:27 | 30.77219 | 122.41140 | 21393 ft | 380 kts | 190° |
| 2026-04-14 10:27 | 30.74528 | 122.40978 | 20861 ft | 394 kts | 189° |
| 2026-04-14 10:27 | 30.71815 | 122.40826 | 20290 ft | 385 kts | 189° |
| 2026-04-14 10:27 | 30.69189 | 122.40689 | 19752 ft | 372 kts | 189° |
| 2026-04-14 10:28 | 30.66652 | 122.40554 | 19234 ft | 361 kts | 189° |
| 2026-04-14 10:28 | 30.64169 | 122.40417 | 18737 ft | 353 kts | 189° |
| 2026-04-14 10:28 | 30.61745 | 122.40282 | 18228 ft | 347 kts | 189° |
| 2026-04-14 10:28 | 30.59326 | 122.40144 | 17675 ft | 353 kts | 189° |
| 2026-04-14 10:29 | 30.56811 | 122.39998 | 17102 ft | 370 kts | 188° |
| 2026-04-14 10:29 | 30.54245 | 122.39859 | 16529 ft | 366 kts | 188° |
| 2026-04-14 10:29 | 30.51741 | 122.39735 | 15999 ft | 354 kts | 188° |
| 2026-04-14 10:29 | 30.49328 | 122.39616 | 15491 ft | 343 kts | 188° |
| 2026-04-14 10:30 | 30.46967 | 122.39495 | 15003 ft | 337 kts | 188° |
| 2026-04-14 10:30 | 30.44651 | 122.39374 | 14535 ft | 332 kts | 188° |
| 2026-04-14 10:30 | 30.42325 | 122.39247 | 14076 ft | 342 kts | 187° |
| 2026-04-14 10:30 | 30.39889 | 122.39111 | 13547 ft | 358 kts | 187° |
| 2026-04-14 10:31 | 30.37441 | 122.38982 | 12983 ft | 350 kts | 187° |
| 2026-04-14 10:31 | 30.35058 | 122.38863 | 12460 ft | 337 kts | 187° |
| 2026-04-14 10:31 | 30.32743 | 122.38744 | 11966 ft | 327 kts | 187° |
| 2026-04-14 10:31 | 30.30490 | 122.38626 | 11495 ft | 322 kts | 187° |
| 2026-04-14 10:32 | 30.28272 | 122.38509 | 11046 ft | 320 kts | 187° |
| 2026-04-14 10:32 | 30.26044 | 122.38390 | 10893 ft | 318 kts | 187° |
| 2026-04-14 10:32 | 30.23941 | 122.38531 | 11145 ft | 291 kts | 174° |
| 2026-04-14 10:32 | 30.22046 | 122.39017 | 11020 ft | 268 kts | 172° |
| 2026-04-14 10:33 | 30.20313 | 122.39511 | 10896 ft | 246 kts | 172° |
| 2026-04-14 10:33 | 30.18724 | 122.39965 | 10748 ft | 226 kts | 173° |
| 2026-04-14 10:33 | 30.17262 | 122.40375 | 10621 ft | 208 kts | 174° |
| 2026-04-14 10:33 | 30.15910 | 122.40749 | 10445 ft | 195 kts | 174° |
| 2026-04-14 10:34 | 30.13316 | 122.41449 | 9887 ft | 186 kts | 175° |
| 2026-04-14 10:34 | 30.12075 | 122.41781 | 9799 ft | 186 kts | 175° |
| 2026-04-14 10:34 | 30.10799 | 122.42118 | 9628 ft | 189 kts | 175° |
| 2026-04-14 10:35 | 30.09542 | 122.42454 | 9382 ft | 184 kts | 175° |
| 2026-04-14 10:35 | 30.08292 | 122.42787 | 9187 ft | 185 kts | 174° |
| 2026-04-14 10:35 | 30.07030 | 122.43121 | 9003 ft | 188 kts | 174° |
| 2026-04-14 10:35 | 30.05765 | 122.43457 | 8800 ft | 189 kts | 174° |
| 2026-04-14 10:36 | 30.04478 | 122.43800 | 8589 ft | 188 kts | 174° |
| 2026-04-14 10:36 | 30.03219 | 122.44136 | 8460 ft | 183 kts | 174° |
| 2026-04-14 10:36 | 30.01993 | 122.44463 | 8361 ft | 182 kts | 174° |
| 2026-04-14 10:36 | 30.00745 | 122.44793 | 8301 ft | 187 kts | 174° |
| 2026-04-14 10:37 | 29.99479 | 122.45129 | 8212 ft | 187 kts | 173° |
| 2026-04-14 10:37 | 29.98214 | 122.45466 | 8121 ft | 186 kts | 173° |
| 2026-04-14 10:37 | 29.96963 | 122.45798 | 8041 ft | 184 kts | 173° |
| 2026-04-14 10:37 | 29.95718 | 122.46129 | 7960 ft | 183 kts | 173° |
| 2026-04-14 10:38 | 29.94492 | 122.46454 | 7888 ft | 183 kts | 173° |
| 2026-04-14 10:38 | 29.93220 | 122.46713 | 7702 ft | 186 kts | 180° |
| 2026-04-14 10:38 | 29.91927 | 122.46846 | 7529 ft | 187 kts | 181° |
| 2026-04-14 10:38 | 29.90642 | 122.46968 | 7343 ft | 184 kts | 181° |
| 2026-04-14 10:39 | 29.89381 | 122.47090 | 7155 ft | 181 kts | 181° |
| 2026-04-14 10:39 | 29.88134 | 122.47212 | 6980 ft | 179 kts | 180° |
| 2026-04-14 10:39 | 29.86892 | 122.47334 | 6806 ft | 180 kts | 180° |
| 2026-04-14 10:39 | 29.85650 | 122.47457 | 6629 ft | 180 kts | 180° |
| 2026-04-14 10:40 | 29.84396 | 122.47583 | 6442 ft | 181 kts | 180° |
| 2026-04-14 10:40 | 29.83144 | 122.47710 | 6251 ft | 182 kts | 179° |
| 2026-04-14 10:40 | 29.81876 | 122.47840 | 6049 ft | 183 kts | 179° |
| 2026-04-14 10:40 | 29.80609 | 122.47970 | 5851 ft | 183 kts | 179° |
| 2026-04-14 10:41 | 29.79346 | 122.48099 | 5656 ft | 182 kts | 179° |
| 2026-04-14 10:41 | 29.78089 | 122.48228 | 5464 ft | 181 kts | 179° |
| 2026-04-14 10:41 | 29.76837 | 122.48357 | 5267 ft | 180 kts | 179° |
| 2026-04-14 10:41 | 29.75596 | 122.48485 | 5081 ft | 178 kts | 179° |
| 2026-04-14 10:42 | 29.74388 | 122.48417 | 4865 ft | 172 kts | 206° |
| 2026-04-14 10:42 | 29.73559 | 122.47538 | 4709 ft | 162 kts | 244° |
| 2026-04-14 10:42 | 29.73324 | 122.46300 | 4548 ft | 159 kts | 265° |
| 2026-04-14 10:42 | 29.73217 | 122.45008 | 4379 ft | 165 kts | 263° |
| 2026-04-14 10:43 | 29.73103 | 122.43689 | 4180 ft | 166 kts | 264° |
| 2026-04-14 10:43 | 29.72993 | 122.42368 | 3983 ft | 166 kts | 264° |
| 2026-04-14 10:43 | 29.72885 | 122.41048 | 3800 ft | 166 kts | 264° |
| 2026-04-14 10:43 | 29.72862 | 122.39741 | 3671 ft | 161 kts | 285° |
| 2026-04-14 10:44 | 29.73547 | 122.38871 | 3691 ft | 147 kts | 337° |
| 2026-04-14 10:44 | 29.74513 | 122.38603 | 3505 ft | 140 kts | 343° |
| 2026-04-14 10:44 | 29.75452 | 122.38361 | 3331 ft | 140 kts | 344° |
| 2026-04-14 10:44 | 29.76406 | 122.38127 | 3164 ft | 141 kts | 347° |
| 2026-04-14 10:45 | 29.77370 | 122.37957 | 2975 ft | 140 kts | 351° |
| 2026-04-14 10:45 | 29.78327 | 122.37830 | 2782 ft | 138 kts | 352° |
| 2026-04-14 10:45 | 29.79278 | 122.37720 | 2612 ft | 137 kts | 353° |
| 2026-04-14 10:45 | 29.80217 | 122.37618 | 2430 ft | 135 kts | 353° |
| 2026-04-14 10:46 | 29.81144 | 122.37520 | 2252 ft | 133 kts | 354° |
| 2026-04-14 10:46 | 29.82066 | 122.37423 | 2076 ft | 133 kts | 354° |
| 2026-04-14 10:46 | 29.82980 | 122.37326 | 1887 ft | 131 kts | 354° |
| 2026-04-14 10:46 | 29.83874 | 122.37233 | 1735 ft | 129 kts | 354° |
| 2026-04-14 10:47 | 29.84765 | 122.37139 | 1568 ft | 128 kts | 355° |
| 2026-04-14 10:47 | 29.85656 | 122.37048 | 1393 ft | 129 kts | 354° |
| 2026-04-14 10:47 | 29.86554 | 122.36951 | 1212 ft | 130 kts | 355° |
| 2026-04-14 10:47 | 29.87455 | 122.36856 | 1033 ft | 130 kts | 355° |
| 2026-04-14 10:48 | 29.88347 | 122.36762 | 861 ft | 128 kts | 355° |
| 2026-04-14 10:48 | 29.89228 | 122.36670 | 684 ft | 127 kts | 355° |
| 2026-04-14 10:48 | 29.90102 | 122.36580 | 531 ft | 126 kts | 355° |
| 2026-04-14 10:48 | 29.90973 | 122.36488 | 376 ft | 126 kts | 354° |
| 2026-04-14 10:49 | 29.91843 | 122.36400 | 201 ft | 126 kts | 355° |
| 2026-04-14 10:49 | 29.92712 | 122.36310 | 60 ft | 125 kts | 355° |
| 2026-04-14 10:49 | 29.93458 | 122.36228 | 46 ft | 81 kts | 353° |
| 2026-04-14 10:49 | 29.93791 | 122.36185 | 51 ft | 17 kts | 342° |
| 2026-04-14 10:50 | 29.93827 | 122.36102 | 52 ft | 0 kts | 267° |
| 2026-04-14 10:50 | 29.93827 | 122.36101 | 52 ft | 0 kts | 268° |
| 2026-04-14 10:50 | 29.93826 | 122.36096 | 52 ft | 2 kts | 268° |
| 2026-04-14 10:50 | 29.93825 | 122.36058 | 52 ft | 8 kts | 267° |
| 2026-04-14 10:51 | 29.93766 | 122.36007 | 48 ft | 16 kts | 182° |
| 2026-04-14 10:51 | 29.93706 | 122.36010 | 45 ft | 6 kts | 175° |
| 2026-04-14 10:51 | 29.93634 | 122.36017 | 45 ft | 15 kts | 174° |
| 2026-04-14 10:51 | 29.93546 | 122.36028 | 43 ft | 9 kts | 173° |
| 2026-04-14 10:52 | 29.93482 | 122.36022 | 41 ft | 11 kts | 210° |
| 2026-04-14 10:52 | 29.93462 | 122.35992 | 42 ft | 5 kts | 261° |
| 2026-04-14 10:52 | 29.93458 | 122.35918 | 38 ft | 11 kts | 266° |
| 2026-04-14 10:52 | 29.93456 | 122.35871 | 35 ft | 5 kts | 266° |
| 2026-04-14 10:53 | 29.93454 | 122.35853 | 34 ft | 0 kts | 264° |